sensor_id;sensor_type;location;lat;lon;timestamp;pressure;altitude;pressure_sealevel;temperature;humidity
46782;BME280;32541;46.298;11.506;2022-10-16T00:01:16;89950.09;;;12.34;90.80
46782;BME280;32541;46.298;11.506;2022-10-16T00:03:43;89946.91;;;12.27;90.89
46782;BME280;32541;46.298;11.506;2022-10-16T00:06:10;89935.31;;;12.29;91.05
46782;BME280;32541;46.298;11.506;2022-10-16T00:08:37;89945.03;;;12.30;91.02
46782;BME280;32541;46.298;11.506;2022-10-16T00:11:05;89947.06;;;12.39;89.91
46782;BME280;32541;46.298;11.506;2022-10-16T00:13:33;89951.56;;;12.35;89.27
46782;BME280;32541;46.298;11.506;2022-10-16T00:15:59;89954.91;;;12.33;89.26
46782;BME280;32541;46.298;11.506;2022-10-16T00:18:25;89964.63;;;12.24;89.47
46782;BME280;32541;46.298;11.506;2022-10-16T00:20:51;89961.00;;;12.22;90.21
46782;BME280;32541;46.298;11.506;2022-10-16T00:23:17;89961.44;;;12.18;90.46
46782;BME280;32541;46.298;11.506;2022-10-16T00:25:43;89964.31;;;12.20;90.16
46782;BME280;32541;46.298;11.506;2022-10-16T00:28:08;89962.00;;;12.26;89.18
46782;BME280;32541;46.298;11.506;2022-10-16T00:30:33;89961.88;;;12.34;89.86
46782;BME280;32541;46.298;11.506;2022-10-16T00:33:02;89969.41;;;12.14;91.18
46782;BME280;32541;46.298;11.506;2022-10-16T00:35:27;89969.41;;;12.24;90.87
46782;BME280;32541;46.298;11.506;2022-10-16T00:37:54;89971.88;;;12.10;91.95
46782;BME280;32541;46.298;11.506;2022-10-16T00:40:19;89974.63;;;12.01;92.55
46782;BME280;32541;46.298;11.506;2022-10-16T00:42:45;89973.75;;;11.98;92.36
46782;BME280;32541;46.298;11.506;2022-10-16T00:45:10;89971.41;;;11.95;92.69
46782;BME280;32541;46.298;11.506;2022-10-16T00:47:39;89967.38;;;11.96;92.73
46782;BME280;32541;46.298;11.506;2022-10-16T00:50:30;89966.94;;;11.99;92.95
46782;BME280;32541;46.298;11.506;2022-10-16T00:52:57;89979.41;;;12.00;92.81
46782;BME280;32541;46.298;11.506;2022-10-16T00:55:24;89976.06;;;12.02;92.76
46782;BME280;32541;46.298;11.506;2022-10-16T00:57:49;89983.34;;;12.07;92.26
46782;BME280;32541;46.298;11.506;2022-10-16T01:00:19;89978.53;;;12.07;92.24
46782;BME280;32541;46.298;11.506;2022-10-16T01:03:00;89980.16;;;12.10;92.42
46782;BME280;32541;46.298;11.506;2022-10-16T01:05:39;89978.53;;;12.07;92.28
46782;BME280;32541;46.298;11.506;2022-10-16T01:08:17;89980.00;;;12.08;93.06
46782;BME280;32541;46.298;11.506;2022-10-16T01:10:52;89979.13;;;12.15;92.16
46782;BME280;32541;46.298;11.506;2022-10-16T01:13:33;89979.44;;;12.19;92.41
46782;BME280;32541;46.298;11.506;2022-10-16T01:16:10;89980.59;;;12.16;92.22
46782;BME280;32541;46.298;11.506;2022-10-16T01:21:42;89991.03;;;12.18;92.40
46782;BME280;32541;46.298;11.506;2022-10-16T01:24:31;89980.59;;;12.16;92.27
46782;BME280;32541;46.298;11.506;2022-10-16T01:29:34;89992.34;;;12.17;92.39
46782;BME280;32541;46.298;11.506;2022-10-16T01:32:10;89998.00;;;12.29;92.03
46782;BME280;32541;46.298;11.506;2022-10-16T01:34:53;89994.50;;;12.18;92.10
46782;BME280;32541;46.298;11.506;2022-10-16T01:37:51;89994.81;;;12.22;91.49
46782;BME280;32541;46.298;11.506;2022-10-16T01:40:20;89989.59;;;12.17;92.51
46782;BME280;32541;46.298;11.506;2022-10-16T01:43:19;89993.91;;;12.01;93.51
46782;BME280;32541;46.298;11.506;2022-10-16T01:45:47;89988.25;;;11.89;94.44
46782;BME280;32541;46.298;11.506;2022-10-16T01:48:15;89997.66;;;11.86;94.83
46782;BME280;32541;46.298;11.506;2022-10-16T01:50:44;89992.88;;;11.87;95.07
46782;BME280;32541;46.298;11.506;2022-10-16T01:53:13;89998.38;;;11.87;95.14
46782;BME280;32541;46.298;11.506;2022-10-16T01:55:43;89991.31;;;11.93;94.83
46782;BME280;32541;46.298;11.506;2022-10-16T01:58:12;89994.50;;;11.99;94.22
46782;BME280;32541;46.298;11.506;2022-10-16T02:00:39;89992.47;;;12.09;94.10
46782;BME280;32541;46.298;11.506;2022-10-16T02:03:07;89994.50;;;12.18;93.35
46782;BME280;32541;46.298;11.506;2022-10-16T02:05:46;89989.16;;;12.11;93.29
46782;BME280;32541;46.298;11.506;2022-10-16T02:08:12;89990.72;;;12.04;93.89
46782;BME280;32541;46.298;11.506;2022-10-16T02:10:38;89996.94;;;11.95;94.53
46782;BME280;32541;46.298;11.506;2022-10-16T02:13:08;89986.94;;;11.90;94.35
46782;BME280;32541;46.298;11.506;2022-10-16T02:15:35;89991.44;;;11.95;94.61
46782;BME280;32541;46.298;11.506;2022-10-16T02:18:05;89991.00;;;11.89;94.20
46782;BME280;32541;46.298;11.506;2022-10-16T02:20:56;89994.06;;;11.93;94.19
46782;BME280;32541;46.298;11.506;2022-10-16T02:23:41;89997.53;;;11.84;94.77
46782;BME280;32541;46.298;11.506;2022-10-16T02:26:13;89994.19;;;11.86;94.40
46782;BME280;32541;46.298;11.506;2022-10-16T02:28:49;89990.28;;;11.98;94.33
46782;BME280;32541;46.298;11.506;2022-10-16T02:31:23;89986.50;;;11.94;93.88
46782;BME280;32541;46.298;11.506;2022-10-16T02:33:53;89981.16;;;11.96;93.82
46782;BME280;32541;46.298;11.506;2022-10-16T02:36:20;89976.63;;;11.91;93.80
46782;BME280;32541;46.298;11.506;2022-10-16T02:38:46;89982.13;;;11.91;93.47
46782;BME280;32541;46.298;11.506;2022-10-16T02:41:12;89986.78;;;11.88;93.58
46782;BME280;32541;46.298;11.506;2022-10-16T02:43:37;89979.66;;;11.85;93.73
46782;BME280;32541;46.298;11.506;2022-10-16T02:46:03;89983.88;;;11.86;93.62
46782;BME280;32541;46.298;11.506;2022-10-16T02:48:28;89983.16;;;11.86;94.03
46782;BME280;32541;46.298;11.506;2022-10-16T02:50:53;89993.31;;;11.83;94.13
46782;BME280;32541;46.298;11.506;2022-10-16T02:53:19;89986.06;;;11.78;94.22
46782;BME280;32541;46.298;11.506;2022-10-16T02:55:44;89984.16;;;11.81;93.53
46782;BME280;32541;46.298;11.506;2022-10-16T02:58:09;89980.13;;;11.82;93.63
46782;BME280;32541;46.298;11.506;2022-10-16T03:00:35;89979.38;;;11.81;93.52
46782;BME280;32541;46.298;11.506;2022-10-16T03:03:00;89974.28;;;11.78;93.83
46782;BME280;32541;46.298;11.506;2022-10-16T03:05:26;89980.69;;;11.80;93.46
46782;BME280;32541;46.298;11.506;2022-10-16T03:07:51;89983.31;;;11.88;92.61
46782;BME280;32541;46.298;11.506;2022-10-16T03:10:18;89982.69;;;11.80;92.43
46782;BME280;32541;46.298;11.506;2022-10-16T03:12:43;89978.78;;;11.83;91.48
46782;BME280;32541;46.298;11.506;2022-10-16T03:15:09;89979.25;;;11.89;91.91
46782;BME280;32541;46.298;11.506;2022-10-16T03:17:34;89979.53;;;11.83;90.35
46782;BME280;32541;46.298;11.506;2022-10-16T03:20:00;89975.72;;;11.69;90.82
46782;BME280;32541;46.298;11.506;2022-10-16T03:22:25;89977.16;;;11.70;90.46
46782;BME280;32541;46.298;11.506;2022-10-16T03:24:51;89974.59;;;11.72;89.57
46782;BME280;32541;46.298;11.506;2022-10-16T03:27:17;89975.16;;;11.70;88.65
46782;BME280;32541;46.298;11.506;2022-10-16T03:29:42;89971.50;;;11.68;87.58
46782;BME280;32541;46.298;11.506;2022-10-16T03:32:07;89979.72;;;11.58;86.98
46782;BME280;32541;46.298;11.506;2022-10-16T03:34:33;89976.22;;;11.85;85.52
46782;BME280;32541;46.298;11.506;2022-10-16T03:36:58;89963.22;;;11.68;86.48
46782;BME280;32541;46.298;11.506;2022-10-16T03:39:24;89960.44;;;11.58;86.58
46782;BME280;32541;46.298;11.506;2022-10-16T03:41:49;89972.75;;;11.48;87.31
46782;BME280;32541;46.298;11.506;2022-10-16T03:44:15;89971.16;;;11.45;88.00
46782;BME280;32541;46.298;11.506;2022-10-16T03:46:40;89969.41;;;11.40;88.19
46782;BME280;32541;46.298;11.506;2022-10-16T03:49:05;89974.13;;;11.30;87.69
46782;BME280;32541;46.298;11.506;2022-10-16T03:51:31;89969.31;;;11.21;88.16
46782;BME280;32541;46.298;11.506;2022-10-16T03:53:56;89978.03;;;11.27;88.11
46782;BME280;32541;46.298;11.506;2022-10-16T03:56:22;89968.59;;;11.20;87.71
46782;BME280;32541;46.298;11.506;2022-10-16T03:58:47;89972.91;;;11.13;86.57
46782;BME280;32541;46.298;11.506;2022-10-16T04:01:12;89975.38;;;11.09;85.32
46782;BME280;32541;46.298;11.506;2022-10-16T04:03:38;89971.81;;;10.99;83.58
46782;BME280;32541;46.298;11.506;2022-10-16T04:06:03;89969.19;;;10.92;83.72
46782;BME280;32541;46.298;11.506;2022-10-16T04:08:29;89979.72;;;11.12;82.67
46782;BME280;32541;46.298;11.506;2022-10-16T04:10:54;89989.81;;;11.00;82.93
46782;BME280;32541;46.298;11.506;2022-10-16T04:13:19;89990.34;;;10.89;83.09
46782;BME280;32541;46.298;11.506;2022-10-16T04:15:45;89994.69;;;10.92;83.21
46782;BME280;32541;46.298;11.506;2022-10-16T04:18:10;89996.97;;;10.86;83.49
46782;BME280;32541;46.298;11.506;2022-10-16T04:20:36;90004.16;;;10.82;84.10
46782;BME280;32541;46.298;11.506;2022-10-16T04:23:02;90001.69;;;10.76;83.66
46782;BME280;32541;46.298;11.506;2022-10-16T04:25:27;90005.84;;;10.68;82.99
46782;BME280;32541;46.298;11.506;2022-10-16T04:27:53;90001.94;;;10.71;83.52
46782;BME280;32541;46.298;11.506;2022-10-16T04:30:19;90004.84;;;10.73;83.20
46782;BME280;32541;46.298;11.506;2022-10-16T04:32:48;90003.16;;;10.77;83.39
46782;BME280;32541;46.298;11.506;2022-10-16T04:35:14;89999.56;;;10.84;82.72
46782;BME280;32541;46.298;11.506;2022-10-16T04:37:40;90011.53;;;10.79;81.47
46782;BME280;32541;46.298;11.506;2022-10-16T04:40:05;90005.78;;;10.85;81.45
46782;BME280;32541;46.298;11.506;2022-10-16T04:42:31;90009.31;;;10.68;82.20
46782;BME280;32541;46.298;11.506;2022-10-16T04:44:56;90020.09;;;10.56;81.74
46782;BME280;32541;46.298;11.506;2022-10-16T04:47:22;90015.25;;;10.47;82.71
46782;BME280;32541;46.298;11.506;2022-10-16T04:49:47;90009.09;;;10.56;82.22
46782;BME280;32541;46.298;11.506;2022-10-16T04:52:12;90013.22;;;10.48;83.01
46782;BME280;32541;46.298;11.506;2022-10-16T04:54:38;90013.72;;;10.37;83.05
46782;BME280;32541;46.298;11.506;2022-10-16T04:57:03;90019.63;;;10.33;83.36
46782;BME280;32541;46.298;11.506;2022-10-16T04:59:30;90020.16;;;10.49;82.49
46782;BME280;32541;46.298;11.506;2022-10-16T05:01:55;90020.16;;;10.49;83.03
46782;BME280;32541;46.298;11.506;2022-10-16T05:04:21;90020.91;;;10.32;83.81
46782;BME280;32541;46.298;11.506;2022-10-16T05:06:47;90025.13;;;10.33;84.00
46782;BME280;32541;46.298;11.506;2022-10-16T05:09:12;90026.91;;;10.38;83.28
46782;BME280;32541;46.298;11.506;2022-10-16T05:11:38;90027.22;;;10.25;84.00
46782;BME280;32541;46.298;11.506;2022-10-16T05:14:03;90035.56;;;10.18;84.83
46782;BME280;32541;46.298;11.506;2022-10-16T05:16:29;90037.13;;;10.03;85.30
46782;BME280;32541;46.298;11.506;2022-10-16T05:18:55;90037.78;;;9.94;85.24
46782;BME280;32541;46.298;11.506;2022-10-16T05:21:21;90040.28;;;10.00;85.38
46782;BME280;32541;46.298;11.506;2022-10-16T05:23:47;90044.00;;;10.12;84.40
46782;BME280;32541;46.298;11.506;2022-10-16T05:26:12;90045.69;;;10.07;85.12
46782;BME280;32541;46.298;11.506;2022-10-16T05:28:37;90043.06;;;10.17;84.61
46782;BME280;32541;46.298;11.506;2022-10-16T05:31:07;90039.66;;;10.09;85.05
46782;BME280;32541;46.298;11.506;2022-10-16T05:33:34;90055.25;;;10.07;85.51
46782;BME280;32541;46.298;11.506;2022-10-16T05:36:07;90051.66;;;9.96;85.65
46782;BME280;32541;46.298;11.506;2022-10-16T05:38:34;90052.00;;;10.00;85.64
46782;BME280;32541;46.298;11.506;2022-10-16T05:40:59;90062.34;;;10.10;85.64
46782;BME280;32541;46.298;11.506;2022-10-16T05:43:27;90058.66;;;10.15;85.41
46782;BME280;32541;46.298;11.506;2022-10-16T05:46:04;90067.69;;;10.07;85.58
46782;BME280;32541;46.298;11.506;2022-10-16T05:48:30;90071.25;;;10.00;85.99
46782;BME280;32541;46.298;11.506;2022-10-16T05:50:59;90066.25;;;10.07;85.26
46782;BME280;32541;46.298;11.506;2022-10-16T05:53:25;90071.16;;;10.08;84.85
46782;BME280;32541;46.298;11.506;2022-10-16T05:55:52;90075.38;;;10.09;85.06
46782;BME280;32541;46.298;11.506;2022-10-16T05:58:18;90076.78;;;10.18;83.96
46782;BME280;32541;46.298;11.506;2022-10-16T06:00:44;90072.44;;;10.07;84.67
46782;BME280;32541;46.298;11.506;2022-10-16T06:03:09;90078.28;;;10.11;84.64
46782;BME280;32541;46.298;11.506;2022-10-16T06:05:34;90076.03;;;10.17;84.92
46782;BME280;32541;46.298;11.506;2022-10-16T06:08:00;90083.81;;;10.28;84.73
46782;BME280;32541;46.298;11.506;2022-10-16T06:10:25;90079.56;;;10.10;84.73
46782;BME280;32541;46.298;11.506;2022-10-16T06:12:50;90086.16;;;10.15;85.09
46782;BME280;32541;46.298;11.506;2022-10-16T06:15:16;90090.97;;;10.07;85.03
46782;BME280;32541;46.298;11.506;2022-10-16T06:17:41;90097.25;;;9.99;85.61
46782;BME280;32541;46.298;11.506;2022-10-16T06:20:07;90098.53;;;9.98;86.71
46782;BME280;32541;46.298;11.506;2022-10-16T06:22:33;90097.25;;;9.99;85.78
46782;BME280;32541;46.298;11.506;2022-10-16T06:24:58;90102.41;;;9.95;85.82
46782;BME280;32541;46.298;11.506;2022-10-16T06:27:23;90110.41;;;10.01;86.25
46782;BME280;32541;46.298;11.506;2022-10-16T06:29:49;90109.28;;;10.04;86.26
46782;BME280;32541;46.298;11.506;2022-10-16T06:32:14;90119.50;;;10.11;85.75
46782;BME280;32541;46.298;11.506;2022-10-16T06:34:39;90118.38;;;10.14;86.66
46782;BME280;32541;46.298;11.506;2022-10-16T06:37:06;90121.56;;;10.28;86.72
46782;BME280;32541;46.298;11.506;2022-10-16T06:39:31;90118.41;;;10.31;86.30
46782;BME280;32541;46.298;11.506;2022-10-16T06:41:57;90115.91;;;10.43;86.07
46782;BME280;32541;46.298;11.506;2022-10-16T06:44:22;90122.47;;;10.47;86.13
46782;BME280;32541;46.298;11.506;2022-10-16T06:46:48;90125.22;;;10.47;85.50
46782;BME280;32541;46.298;11.506;2022-10-16T06:49:13;90126.84;;;10.50;86.32
46782;BME280;32541;46.298;11.506;2022-10-16T06:51:41;90132.34;;;10.50;85.37
46782;BME280;32541;46.298;11.506;2022-10-16T06:54:06;90130.81;;;10.57;85.00
46782;BME280;32541;46.298;11.506;2022-10-16T06:56:33;90136.22;;;10.65;84.33
46782;BME280;32541;46.298;11.506;2022-10-16T06:58:59;90138.41;;;10.66;84.41
46782;BME280;32541;46.298;11.506;2022-10-16T07:01:25;90144.06;;;10.68;85.21
46782;BME280;32541;46.298;11.506;2022-10-16T07:03:51;90136.72;;;10.71;83.99
46782;BME280;32541;46.298;11.506;2022-10-16T07:06:19;90147.47;;;10.76;83.48
46782;BME280;32541;46.298;11.506;2022-10-16T07:08:46;90147.06;;;10.80;83.62
46782;BME280;32541;46.298;11.506;2022-10-16T07:11:14;90146.66;;;10.83;83.98
46782;BME280;32541;46.298;11.506;2022-10-16T07:13:41;90153.22;;;10.88;84.30
46782;BME280;32541;46.298;11.506;2022-10-16T07:16:15;90161.06;;;10.91;84.33
46782;BME280;32541;46.298;11.506;2022-10-16T07:18:42;90161.38;;;11.12;83.02
46782;BME280;32541;46.298;11.506;2022-10-16T07:21:20;90169.47;;;11.10;83.10
46782;BME280;32541;46.298;11.506;2022-10-16T07:23:50;90166.38;;;11.24;82.36
46782;BME280;32541;46.298;11.506;2022-10-16T07:26:15;90162.63;;;11.29;83.19
46782;BME280;32541;46.298;11.506;2022-10-16T07:28:42;90177.53;;;11.26;84.62
46782;BME280;32541;46.298;11.506;2022-10-16T07:31:11;90176.00;;;11.32;84.13
46782;BME280;32541;46.298;11.506;2022-10-16T07:33:39;90175.91;;;11.40;84.39
46782;BME280;32541;46.298;11.506;2022-10-16T07:36:05;90183.50;;;11.32;85.10
46782;BME280;32541;46.298;11.506;2022-10-16T07:38:31;90181.34;;;11.30;85.41
46782;BME280;32541;46.298;11.506;2022-10-16T07:41:03;90184.66;;;11.29;84.05
46782;BME280;32541;46.298;11.506;2022-10-16T07:43:29;90184.94;;;11.50;84.72
46782;BME280;32541;46.298;11.506;2022-10-16T07:45:55;90183.06;;;11.69;83.36
46782;BME280;32541;46.298;11.506;2022-10-16T07:48:22;90188.25;;;11.92;83.36
46782;BME280;32541;46.298;11.506;2022-10-16T07:50:48;90191.78;;;12.02;81.47
46782;BME280;32541;46.298;11.506;2022-10-16T07:53:13;90198.84;;;12.22;81.33
46782;BME280;32541;46.298;11.506;2022-10-16T07:55:39;90197.31;;;12.48;81.72
46782;BME280;32541;46.298;11.506;2022-10-16T07:58:05;90192.34;;;13.02;76.42
46782;BME280;32541;46.298;11.506;2022-10-16T08:00:31;90190.94;;;13.20;75.67
46782;BME280;32541;46.298;11.506;2022-10-16T08:02:57;90195.16;;;13.12;76.30
46782;BME280;32541;46.298;11.506;2022-10-16T08:05:27;90195.16;;;13.41;76.55
46782;BME280;32541;46.298;11.506;2022-10-16T08:07:53;90194.53;;;13.71;74.78
46782;BME280;32541;46.298;11.506;2022-10-16T08:10:20;90202.25;;;14.22;73.52
46782;BME280;32541;46.298;11.506;2022-10-16T08:12:46;90196.63;;;14.61;72.97
46782;BME280;32541;46.298;11.506;2022-10-16T08:15:12;90203.47;;;15.12;69.05
46782;BME280;32541;46.298;11.506;2022-10-16T08:17:37;90198.88;;;15.47;68.22
46782;BME280;32541;46.298;11.506;2022-10-16T08:20:03;90199.91;;;15.96;64.03
46782;BME280;32541;46.298;11.506;2022-10-16T08:22:29;90204.75;;;16.07;63.89
46782;BME280;32541;46.298;11.506;2022-10-16T08:24:54;90204.53;;;16.15;62.38
46782;BME280;32541;46.298;11.506;2022-10-16T08:27:19;90209.25;;;16.12;63.22
46782;BME280;32541;46.298;11.506;2022-10-16T08:29:45;90198.56;;;16.53;60.59
46782;BME280;32541;46.298;11.506;2022-10-16T08:32:10;90194.72;;;16.58;60.34
46782;BME280;32541;46.298;11.506;2022-10-16T08:34:36;90204.91;;;15.76;63.07
46782;BME280;32541;46.298;11.506;2022-10-16T08:37:01;90199.91;;;15.96;62.01
46782;BME280;32541;46.298;11.506;2022-10-16T08:39:27;90202.41;;;16.36;61.62
46782;BME280;32541;46.298;11.506;2022-10-16T08:45:01;90194.81;;;17.30;59.58
46782;BME280;32541;46.298;11.506;2022-10-16T08:47:54;90196.50;;;17.83;57.17
46782;BME280;32541;46.298;11.506;2022-10-16T08:50:27;90193.69;;;18.20;55.47
46782;BME280;32541;46.298;11.506;2022-10-16T08:52:54;90187.19;;;18.54;54.10
46782;BME280;32541;46.298;11.506;2022-10-16T08:55:43;90188.09;;;18.20;53.15
46782;BME280;32541;46.298;11.506;2022-10-16T08:58:16;90188.06;;;18.70;53.46
46782;BME280;32541;46.298;11.506;2022-10-16T09:00:44;90184.41;;;18.68;52.74
46782;BME280;32541;46.298;11.506;2022-10-16T09:06:01;90179.03;;;17.94;51.78
46782;BME280;32541;46.298;11.506;2022-10-16T09:16:27;90177.31;;;17.75;53.17
46782;BME280;32541;46.298;11.506;2022-10-16T09:21:36;90182.16;;;17.15;55.44
46782;BME280;32541;46.298;11.506;2022-10-16T09:24:13;90177.84;;;17.86;53.24
46782;BME280;32541;46.298;11.506;2022-10-16T09:26:39;90179.06;;;17.34;55.16
46782;BME280;32541;46.298;11.506;2022-10-16T09:29:04;90171.06;;;17.03;54.47
46782;BME280;32541;46.298;11.506;2022-10-16T09:31:30;90175.47;;;17.20;55.71
46782;BME280;32541;46.298;11.506;2022-10-16T09:34:00;90169.84;;;17.66;53.61
46782;BME280;32541;46.298;11.506;2022-10-16T09:36:41;90169.47;;;18.36;51.85
46782;BME280;32541;46.298;11.506;2022-10-16T09:39:09;90166.56;;;18.59;51.19
46782;BME280;32541;46.298;11.506;2022-10-16T09:41:37;90170.53;;;19.09;51.73
46782;BME280;32541;46.298;11.506;2022-10-16T09:44:15;90162.16;;;19.50;50.67
46782;BME280;32541;46.298;11.506;2022-10-16T09:46:41;90160.00;;;19.91;50.89
46782;BME280;32541;46.298;11.506;2022-10-16T09:49:24;90168.56;;;19.38;50.30
46782;BME280;32541;46.298;11.506;2022-10-16T09:51:50;90167.22;;;18.99;50.43
46782;BME280;32541;46.298;11.506;2022-10-16T09:54:20;90168.00;;;19.69;49.10
46782;BME280;32541;46.298;11.506;2022-10-16T09:56:46;90170.41;;;19.07;49.31
46782;BME280;32541;46.298;11.506;2022-10-16T09:59:18;90169.56;;;18.63;51.15
46782;BME280;32541;46.298;11.506;2022-10-16T10:01:47;90166.88;;;18.65;51.57
46782;BME280;32541;46.298;11.506;2022-10-16T10:04:13;90166.78;;;17.99;54.12
46782;BME280;32541;46.298;11.506;2022-10-16T10:09:22;90172.28;;;17.86;53.13
46782;BME280;32541;46.298;11.506;2022-10-16T10:14:26;90167.72;;;18.68;52.89
46782;BME280;32541;46.298;11.506;2022-10-16T10:17:22;90170.59;;;16.72;55.73
46782;BME280;32541;46.298;11.506;2022-10-16T10:19:55;90161.25;;;18.13;53.92
46782;BME280;32541;46.298;11.506;2022-10-16T10:22:42;90160.78;;;18.55;51.12
46782;BME280;32541;46.298;11.506;2022-10-16T10:33:36;90157.84;;;17.75;53.72
46782;BME280;32541;46.298;11.506;2022-10-16T10:38:54;90157.19;;;16.92;54.87
46782;BME280;32541;46.298;11.506;2022-10-16T10:44:18;90143.75;;;17.85;53.61
46782;BME280;32541;46.298;11.506;2022-10-16T10:46:56;90146.19;;;17.42;54.06
46782;BME280;32541;46.298;11.506;2022-10-16T11:00:21;90141.63;;;19.86;49.33
46782;BME280;32541;46.298;11.506;2022-10-16T11:06:16;90137.31;;;19.69;49.89
46782;BME280;32541;46.298;11.506;2022-10-16T11:08:50;90141.16;;;20.21;50.06
46782;BME280;32541;46.298;11.506;2022-10-16T11:11:27;90137.09;;;20.53;48.31
46782;BME280;32541;46.298;11.506;2022-10-16T11:13:58;90132.94;;;19.51;49.63
46782;BME280;32541;46.298;11.506;2022-10-16T11:16:51;90137.09;;;19.09;51.58
46782;BME280;32541;46.298;11.506;2022-10-16T11:19:31;90131.81;;;18.60;53.51
46782;BME280;32541;46.298;11.506;2022-10-16T11:22:04;90122.53;;;18.97;51.87
46782;BME280;32541;46.298;11.506;2022-10-16T11:27:59;90124.59;;;20.25;50.24
46782;BME280;32541;46.298;11.506;2022-10-16T11:30:44;90126.28;;;20.77;51.76
46782;BME280;32541;46.298;11.506;2022-10-16T11:35:51;90105.25;;;21.23;48.90
46782;BME280;32541;46.298;11.506;2022-10-16T11:38:29;90108.47;;;20.23;49.20
46782;BME280;32541;46.298;11.506;2022-10-16T11:41:02;90108.63;;;20.57;49.50
46782;BME280;32541;46.298;11.506;2022-10-16T11:46:03;90102.25;;;21.03;48.86
46782;BME280;32541;46.298;11.506;2022-10-16T11:51:33;90109.00;;;21.63;48.40
46782;BME280;32541;46.298;11.506;2022-10-16T11:54:14;90111.44;;;21.05;47.19
46782;BME280;32541;46.298;11.506;2022-10-16T11:56:44;90108.66;;;21.05;47.35
46782;BME280;32541;46.298;11.506;2022-10-16T12:02:13;90114.13;;;19.37;50.93
46782;BME280;32541;46.298;11.506;2022-10-16T12:04:49;90109.84;;;18.94;51.40
46782;BME280;32541;46.298;11.506;2022-10-16T12:07:22;90112.00;;;18.95;52.07
46782;BME280;32541;46.298;11.506;2022-10-16T12:09:50;90102.72;;;19.61;51.68
46782;BME280;32541;46.298;11.506;2022-10-16T12:12:38;90100.03;;;19.92;50.36
46782;BME280;32541;46.298;11.506;2022-10-16T12:15:23;90103.72;;;20.26;51.41
46782;BME280;32541;46.298;11.506;2022-10-16T12:17:50;90107.78;;;19.93;50.28
46782;BME280;32541;46.298;11.506;2022-10-16T12:22:59;90107.94;;;19.82;51.08
46782;BME280;32541;46.298;11.506;2022-10-16T12:28:05;90103.63;;;19.09;54.30
46782;BME280;32541;46.298;11.506;2022-10-16T12:30:34;90106.09;;;19.73;52.17
46782;BME280;32541;46.298;11.506;2022-10-16T12:33:06;90112.94;;;19.00;52.54
46782;BME280;32541;46.298;11.506;2022-10-16T12:35:34;90118.22;;;18.41;53.88
46782;BME280;32541;46.298;11.506;2022-10-16T12:38:21;90100.16;;;18.67;54.05
46782;BME280;32541;46.298;11.506;2022-10-16T12:41:08;90109.44;;;18.33;54.71
46782;BME280;32541;46.298;11.506;2022-10-16T12:43:44;90105.44;;;18.36;55.01
46782;BME280;32541;46.298;11.506;2022-10-16T12:48:41;90109.31;;;18.97;53.82
46782;BME280;32541;46.298;11.506;2022-10-16T12:51:21;90121.72;;;18.67;53.84
46782;BME280;32541;46.298;11.506;2022-10-16T12:54:20;90108.84;;;18.48;55.29
46782;BME280;32541;46.298;11.506;2022-10-16T13:00:23;90115.09;;;18.88;55.32
46782;BME280;32541;46.298;11.506;2022-10-16T13:02:49;90109.69;;;19.75;53.83
46782;BME280;32541;46.298;11.506;2022-10-16T13:14:05;90123.03;;;19.77;51.85
46782;BME280;32541;46.298;11.506;2022-10-16T13:17:06;90139.72;;;19.61;51.92
46782;BME280;32541;46.298;11.506;2022-10-16T13:22:50;90131.50;;;18.81;54.58
46782;BME280;32541;46.298;11.506;2022-10-16T13:27:56;90143.75;;;18.49;56.60
46782;BME280;32541;46.298;11.506;2022-10-16T13:30:25;90137.31;;;18.85;55.69
46782;BME280;32541;46.298;11.506;2022-10-16T13:33:04;90143.88;;;19.33;55.46
46782;BME280;32541;46.298;11.506;2022-10-16T13:35:34;90134.22;;;19.77;54.07
46782;BME280;32541;46.298;11.506;2022-10-16T13:38:12;90144.31;;;20.13;53.08
46782;BME280;32541;46.298;11.506;2022-10-16T13:43:34;90147.03;;;19.68;53.50
46782;BME280;32541;46.298;11.506;2022-10-16T13:46:03;90158.38;;;19.72;54.20
46782;BME280;32541;46.298;11.506;2022-10-16T13:48:30;90151.13;;;19.11;55.98
46782;BME280;32541;46.298;11.506;2022-10-16T13:51:10;90144.41;;;19.16;54.94
46782;BME280;32541;46.298;11.506;2022-10-16T13:53:36;90162.78;;;18.94;55.81
46782;BME280;32541;46.298;11.506;2022-10-16T13:56:04;90158.75;;;18.69;56.28
46782;BME280;32541;46.298;11.506;2022-10-16T13:58:31;90164.22;;;18.67;56.84
46782;BME280;32541;46.298;11.506;2022-10-16T14:01:04;90158.97;;;19.01;57.89
46782;BME280;32541;46.298;11.506;2022-10-16T14:03:32;90165.97;;;19.29;56.37
46782;BME280;32541;46.298;11.506;2022-10-16T14:06:03;90161.34;;;19.06;55.74
46782;BME280;32541;46.298;11.506;2022-10-16T14:08:29;90163.53;;;18.94;56.73
46782;BME280;32541;46.298;11.506;2022-10-16T14:10:58;90157.09;;;19.32;56.40
46782;BME280;32541;46.298;11.506;2022-10-16T14:13:30;90162.75;;;19.62;56.47
46782;BME280;32541;46.298;11.506;2022-10-16T14:16:05;90155.38;;;19.12;56.25
46782;BME280;32541;46.298;11.506;2022-10-16T14:18:31;90164.84;;;19.20;56.42
46782;BME280;32541;46.298;11.506;2022-10-16T14:21:05;90167.75;;;19.36;56.96
46782;BME280;32541;46.298;11.506;2022-10-16T14:23:37;90175.72;;;19.42;56.03
46782;BME280;32541;46.298;11.506;2022-10-16T14:28:36;90176.38;;;18.74;57.22
46782;BME280;32541;46.298;11.506;2022-10-16T14:33:45;90167.97;;;18.08;60.44
46782;BME280;32541;46.298;11.506;2022-10-16T14:36:13;90169.88;;;18.56;59.11
46782;BME280;32541;46.298;11.506;2022-10-16T14:38:41;90169.56;;;18.24;59.47
46782;BME280;32541;46.298;11.506;2022-10-16T14:41:08;90177.16;;;18.24;59.47
46782;BME280;32541;46.298;11.506;2022-10-16T14:43:35;90180.28;;;18.55;59.59
46782;BME280;32541;46.298;11.506;2022-10-16T14:46:03;90177.81;;;18.61;58.14